sensor_id;sensor_type;location;lat;lon;timestamp;P1;durP1;ratioP1;P2;durP2;ratioP2
20997;SDS011;10657;51.276;6.390;2022-07-04T00:01:47;6.75;;;1.70;;
20997;SDS011;10657;51.276;6.390;2022-07-04T00:04:14;6.53;;;1.70;;
20997;SDS011;10657;51.276;6.390;2022-07-04T00:06:41;5.70;;;1.40;;
20997;SDS011;10657;51.276;6.390;2022-07-04T00:09:08;6.05;;;1.80;;
20997;SDS011;10657;51.276;6.390;2022-07-04T00:11:35;6.00;;;1.42;;
20997;SDS011;10657;51.276;6.390;2022-07-04T00:14:02;4.25;;;1.70;;
20997;SDS011;10657;51.276;6.390;2022-07-04T00:16:30;5.30;;;1.42;;
20997;SDS011;10657;51.276;6.390;2022-07-04T00:18:57;4.50;;;1.60;;
20997;SDS011;10657;51.276;6.390;2022-07-04T00:21:24;4.50;;;1.60;;
20997;SDS011;10657;51.276;6.390;2022-07-04T00:23:51;4.95;;;1.65;;
20997;SDS011;10657;51.276;6.390;2022-07-04T00:26:18;5.20;;;1.60;;
20997;SDS011;10657;51.276;6.390;2022-07-04T00:28:45;3.67;;;1.58;;
20997;SDS011;10657;51.276;6.390;2022-07-04T00:31:12;6.07;;;1.80;;
20997;SDS011;10657;51.276;6.390;2022-07-04T00:33:40;5.65;;;2.00;;
20997;SDS011;10657;51.276;6.390;2022-07-04T00:36:07;9.95;;;1.80;;
20997;SDS011;10657;51.276;6.390;2022-07-04T00:38:34;6.43;;;1.95;;
20997;SDS011;10657;51.276;6.390;2022-07-04T00:41:02;6.88;;;1.77;;
20997;SDS011;10657;51.276;6.390;2022-07-04T00:43:29;5.47;;;1.83;;
20997;SDS011;10657;51.276;6.390;2022-07-04T00:46:05;6.00;;;1.83;;
20997;SDS011;10657;51.276;6.390;2022-07-04T00:48:32;4.55;;;1.80;;
20997;SDS011;10657;51.276;6.390;2022-07-04T00:50:59;5.72;;;1.85;;
20997;SDS011;10657;51.276;6.390;2022-07-04T00:53:27;4.35;;;1.85;;
20997;SDS011;10657;51.276;6.390;2022-07-04T00:55:54;5.20;;;1.70;;
20997;SDS011;10657;51.276;6.390;2022-07-04T00:58:22;8.20;;;1.80;;
20997;SDS011;10657;51.276;6.390;2022-07-04T01:00:49;7.30;;;2.08;;
20997;SDS011;10657;51.276;6.390;2022-07-04T01:03:16;4.53;;;1.80;;
20997;SDS011;10657;51.276;6.390;2022-07-04T01:05:44;8.00;;;1.80;;
20997;SDS011;10657;51.276;6.390;2022-07-04T01:08:11;6.65;;;1.60;;
20997;SDS011;10657;51.276;6.390;2022-07-04T01:10:38;5.97;;;1.73;;
20997;SDS011;10657;51.276;6.390;2022-07-04T01:13:05;4.95;;;1.88;;
20997;SDS011;10657;51.276;6.390;2022-07-04T01:15:32;5.93;;;1.80;;
20997;SDS011;10657;51.276;6.390;2022-07-04T01:18:00;5.63;;;1.70;;
20997;SDS011;10657;51.276;6.390;2022-07-04T01:20:32;4.40;;;1.70;;
20997;SDS011;10657;51.276;6.390;2022-07-04T01:22:59;5.93;;;1.90;;
20997;SDS011;10657;51.276;6.390;2022-07-04T01:25:26;5.50;;;2.00;;
20997;SDS011;10657;51.276;6.390;2022-07-04T01:27:54;5.50;;;2.20;;
20997;SDS011;10657;51.276;6.390;2022-07-04T01:30:21;5.68;;;2.22;;
20997;SDS011;10657;51.276;6.390;2022-07-04T01:32:48;4.30;;;1.95;;
20997;SDS011;10657;51.276;6.390;2022-07-04T01:35:15;7.25;;;2.13;;
20997;SDS011;10657;51.276;6.390;2022-07-04T01:37:42;4.85;;;2.15;;
20997;SDS011;10657;51.276;6.390;2022-07-04T01:40:09;6.15;;;2.28;;
20997;SDS011;10657;51.276;6.390;2022-07-04T01:42:41;6.45;;;2.20;;
20997;SDS011;10657;51.276;6.390;2022-07-04T01:45:08;7.07;;;2.92;;
20997;SDS011;10657;51.276;6.390;2022-07-04T01:47:36;6.45;;;2.33;;
20997;SDS011;10657;51.276;6.390;2022-07-04T01:50:04;7.65;;;2.70;;
20997;SDS011;10657;51.276;6.390;2022-07-04T01:52:31;6.88;;;2.22;;
20997;SDS011;10657;51.276;6.390;2022-07-04T01:54:59;5.63;;;2.33;;
20997;SDS011;10657;51.276;6.390;2022-07-04T01:57:26;6.38;;;2.33;;
20997;SDS011;10657;51.276;6.390;2022-07-04T01:59:53;7.55;;;2.60;;
20997;SDS011;10657;51.276;6.390;2022-07-04T02:02:39;6.50;;;2.65;;
20997;SDS011;10657;51.276;6.390;2022-07-04T02:05:06;8.32;;;2.38;;
20997;SDS011;10657;51.276;6.390;2022-07-04T02:07:33;7.65;;;2.80;;
20997;SDS011;10657;51.276;6.390;2022-07-04T02:10:00;6.20;;;2.28;;
20997;SDS011;10657;51.276;6.390;2022-07-04T02:12:27;6.53;;;2.75;;
20997;SDS011;10657;51.276;6.390;2022-07-04T02:15:13;6.13;;;2.50;;
20997;SDS011;10657;51.276;6.390;2022-07-04T02:17:40;11.15;;;3.13;;
20997;SDS011;10657;51.276;6.390;2022-07-04T02:20:08;7.05;;;2.88;;
20997;SDS011;10657;51.276;6.390;2022-07-04T02:22:35;8.40;;;2.60;;
20997;SDS011;10657;51.276;6.390;2022-07-04T02:25:02;6.70;;;2.40;;
20997;SDS011;10657;51.276;6.390;2022-07-04T02:27:29;6.90;;;2.47;;
20997;SDS011;10657;51.276;6.390;2022-07-04T02:29:56;8.45;;;3.00;;
20997;SDS011;10657;51.276;6.390;2022-07-04T02:32:24;7.32;;;2.88;;
20997;SDS011;10657;51.276;6.390;2022-07-04T02:34:51;9.52;;;3.10;;
20997;SDS011;10657;51.276;6.390;2022-07-04T02:37:18;10.10;;;3.20;;
20997;SDS011;10657;51.276;6.390;2022-07-04T02:39:45;8.63;;;3.35;;
20997;SDS011;10657;51.276;6.390;2022-07-04T02:42:12;8.82;;;4.32;;
20997;SDS011;10657;51.276;6.390;2022-07-04T02:44:39;16.05;;;10.07;;
20997;SDS011;10657;51.276;6.390;2022-07-04T02:47:07;18.33;;;12.38;;
20997;SDS011;10657;51.276;6.390;2022-07-04T02:49:34;14.98;;;9.85;;
20997;SDS011;10657;51.276;6.390;2022-07-04T02:52:02;14.30;;;8.55;;
20997;SDS011;10657;51.276;6.390;2022-07-04T02:54:29;12.48;;;7.55;;
20997;SDS011;10657;51.276;6.390;2022-07-04T02:56:56;14.75;;;7.80;;
20997;SDS011;10657;51.276;6.390;2022-07-04T02:59:23;12.85;;;7.82;;
20997;SDS011;10657;51.276;6.390;2022-07-04T03:01:50;12.18;;;7.00;;
20997;SDS011;10657;51.276;6.390;2022-07-04T03:04:17;13.32;;;6.93;;
20997;SDS011;10657;51.276;6.390;2022-07-04T03:06:44;11.18;;;6.25;;
20997;SDS011;10657;51.276;6.390;2022-07-04T03:09:12;10.27;;;5.47;;
20997;SDS011;10657;51.276;6.390;2022-07-04T03:11:39;12.00;;;4.88;;
20997;SDS011;10657;51.276;6.390;2022-07-04T03:14:06;10.15;;;4.63;;
20997;SDS011;10657;51.276;6.390;2022-07-04T03:16:33;9.00;;;3.63;;
20997;SDS011;10657;51.276;6.390;2022-07-04T03:19:00;8.20;;;3.95;;
20997;SDS011;10657;51.276;6.390;2022-07-04T03:21:27;10.52;;;3.40;;
20997;SDS011;10657;51.276;6.390;2022-07-04T03:23:54;7.60;;;3.40;;
20997;SDS011;10657;51.276;6.390;2022-07-04T03:26:25;9.43;;;3.63;;
20997;SDS011;10657;51.276;6.390;2022-07-04T03:28:52;8.73;;;3.42;;
20997;SDS011;10657;51.276;6.390;2022-07-04T03:31:19;9.35;;;3.10;;
20997;SDS011;10657;51.276;6.390;2022-07-04T03:33:46;8.10;;;3.33;;
20997;SDS011;10657;51.276;6.390;2022-07-04T03:36:14;7.03;;;3.38;;
20997;SDS011;10657;51.276;6.390;2022-07-04T03:38:41;6.50;;;2.97;;
20997;SDS011;10657;51.276;6.390;2022-07-04T03:41:08;6.45;;;2.83;;
20997;SDS011;10657;51.276;6.390;2022-07-04T03:43:35;9.63;;;3.97;;
20997;SDS011;10657;51.276;6.390;2022-07-04T03:46:03;6.88;;;2.67;;
20997;SDS011;10657;51.276;6.390;2022-07-04T03:48:30;11.25;;;3.40;;
20997;SDS011;10657;51.276;6.390;2022-07-04T03:50:57;6.70;;;3.20;;
20997;SDS011;10657;51.276;6.390;2022-07-04T03:53:24;10.40;;;3.63;;
20997;SDS011;10657;51.276;6.390;2022-07-04T03:55:52;7.90;;;3.50;;
20997;SDS011;10657;51.276;6.390;2022-07-04T03:58:19;7.53;;;3.47;;
20997;SDS011;10657;51.276;6.390;2022-07-04T04:00:48;7.38;;;3.33;;
20997;SDS011;10657;51.276;6.390;2022-07-04T04:03:15;10.98;;;3.70;;
20997;SDS011;10657;51.276;6.390;2022-07-04T04:06:01;8.73;;;3.65;;
20997;SDS011;10657;51.276;6.390;2022-07-04T04:08:28;8.90;;;3.13;;
20997;SDS011;10657;51.276;6.390;2022-07-04T04:10:55;9.60;;;3.25;;
20997;SDS011;10657;51.276;6.390;2022-07-04T04:13:22;9.63;;;3.47;;
20997;SDS011;10657;51.276;6.390;2022-07-04T04:15:49;7.55;;;2.90;;
20997;SDS011;10657;51.276;6.390;2022-07-04T04:18:17;8.93;;;3.03;;
20997;SDS011;10657;51.276;6.390;2022-07-04T04:20:44;8.65;;;3.28;;
20997;SDS011;10657;51.276;6.390;2022-07-04T04:23:11;8.02;;;2.80;;
20997;SDS011;10657;51.276;6.390;2022-07-04T04:25:38;5.88;;;2.60;;
20997;SDS011;10657;51.276;6.390;2022-07-04T04:28:05;6.97;;;2.97;;
20997;SDS011;10657;51.276;6.390;2022-07-04T04:30:32;10.23;;;3.22;;
20997;SDS011;10657;51.276;6.390;2022-07-04T04:32:59;6.47;;;2.60;;
20997;SDS011;10657;51.276;6.390;2022-07-04T04:35:27;12.55;;;3.20;;
20997;SDS011;10657;51.276;6.390;2022-07-04T04:37:54;8.77;;;2.95;;
20997;SDS011;10657;51.276;6.390;2022-07-04T04:40:21;8.32;;;3.00;;
20997;SDS011;10657;51.276;6.390;2022-07-04T04:42:48;10.80;;;2.90;;
20997;SDS011;10657;51.276;6.390;2022-07-04T04:45:15;6.32;;;2.80;;
20997;SDS011;10657;51.276;6.390;2022-07-04T04:47:42;7.65;;;2.60;;
20997;SDS011;10657;51.276;6.390;2022-07-04T04:50:10;7.13;;;2.65;;
20997;SDS011;10657;51.276;6.390;2022-07-04T04:52:38;8.45;;;3.10;;
20997;SDS011;10657;51.276;6.390;2022-07-04T04:55:05;7.47;;;2.70;;
20997;SDS011;10657;51.276;6.390;2022-07-04T04:57:32;8.20;;;2.92;;
20997;SDS011;10657;51.276;6.390;2022-07-04T04:59:59;8.73;;;2.78;;
20997;SDS011;10657;51.276;6.390;2022-07-04T05:02:27;8.88;;;3.10;;
20997;SDS011;10657;51.276;6.390;2022-07-04T05:04:54;6.45;;;2.60;;
20997;SDS011;10657;51.276;6.390;2022-07-04T05:07:21;6.65;;;2.20;;
20997;SDS011;10657;51.276;6.390;2022-07-04T05:09:49;9.68;;;2.88;;
20997;SDS011;10657;51.276;6.390;2022-07-04T05:12:16;7.97;;;2.70;;
20997;SDS011;10657;51.276;6.390;2022-07-04T05:14:43;10.52;;;2.38;;
20997;SDS011;10657;51.276;6.390;2022-07-04T05:17:11;9.98;;;2.80;;
20997;SDS011;10657;51.276;6.390;2022-07-04T05:19:38;10.63;;;2.90;;
20997;SDS011;10657;51.276;6.390;2022-07-04T05:22:05;8.73;;;2.58;;
20997;SDS011;10657;51.276;6.390;2022-07-04T05:24:32;6.03;;;2.38;;
20997;SDS011;10657;51.276;6.390;2022-07-04T05:27:06;12.30;;;3.58;;
20997;SDS011;10657;51.276;6.390;2022-07-04T05:29:33;9.98;;;2.58;;
20997;SDS011;10657;51.276;6.390;2022-07-04T05:32:00;7.40;;;2.60;;
20997;SDS011;10657;51.276;6.390;2022-07-04T05:34:27;10.73;;;2.92;;
20997;SDS011;10657;51.276;6.390;2022-07-04T05:36:54;7.90;;;2.63;;
20997;SDS011;10657;51.276;6.390;2022-07-04T05:39:22;7.45;;;2.60;;
20997;SDS011;10657;51.276;6.390;2022-07-04T05:41:49;8.05;;;2.90;;
20997;SDS011;10657;51.276;6.390;2022-07-04T05:44:16;6.13;;;2.50;;
20997;SDS011;10657;51.276;6.390;2022-07-04T05:46:43;7.38;;;2.30;;
20997;SDS011;10657;51.276;6.390;2022-07-04T05:49:10;9.25;;;2.50;;
20997;SDS011;10657;51.276;6.390;2022-07-04T05:51:37;9.60;;;2.55;;
20997;SDS011;10657;51.276;6.390;2022-07-04T05:54:04;8.70;;;2.70;;
20997;SDS011;10657;51.276;6.390;2022-07-04T05:56:31;8.30;;;2.80;;
20997;SDS011;10657;51.276;6.390;2022-07-04T05:58:59;12.13;;;3.00;;
20997;SDS011;10657;51.276;6.390;2022-07-04T06:01:26;10.52;;;2.72;;
20997;SDS011;10657;51.276;6.390;2022-07-04T06:03:53;6.10;;;2.50;;
20997;SDS011;10657;51.276;6.390;2022-07-04T06:06:20;9.43;;;2.80;;
20997;SDS011;10657;51.276;6.390;2022-07-04T06:08:47;9.90;;;2.53;;
20997;SDS011;10657;51.276;6.390;2022-07-04T06:11:14;9.00;;;2.92;;
20997;SDS011;10657;51.276;6.390;2022-07-04T06:13:43;7.25;;;2.63;;
20997;SDS011;10657;51.276;6.390;2022-07-04T06:16:10;5.68;;;2.28;;
20997;SDS011;10657;51.276;6.390;2022-07-04T06:18:38;7.50;;;2.92;;
20997;SDS011;10657;51.276;6.390;2022-07-04T06:21:05;5.82;;;2.25;;
20997;SDS011;10657;51.276;6.390;2022-07-04T06:23:32;7.72;;;2.42;;
20997;SDS011;10657;51.276;6.390;2022-07-04T06:25:59;6.82;;;2.00;;
20997;SDS011;10657;51.276;6.390;2022-07-04T06:28:26;8.63;;;2.22;;
20997;SDS011;10657;51.276;6.390;2022-07-04T06:31:12;9.32;;;2.13;;
20997;SDS011;10657;51.276;6.390;2022-07-04T06:33:39;6.03;;;1.73;;
20997;SDS011;10657;51.276;6.390;2022-07-04T06:36:25;7.72;;;2.20;;
20997;SDS011;10657;51.276;6.390;2022-07-04T06:38:52;7.57;;;1.70;;
20997;SDS011;10657;51.276;6.390;2022-07-04T06:41:19;8.27;;;1.88;;
20997;SDS011;10657;51.276;6.390;2022-07-04T06:43:46;4.97;;;1.77;;
20997;SDS011;10657;51.276;6.390;2022-07-04T06:46:13;6.65;;;2.20;;
20997;SDS011;10657;51.276;6.390;2022-07-04T06:48:41;6.30;;;2.28;;
20997;SDS011;10657;51.276;6.390;2022-07-04T06:51:09;5.90;;;1.70;;
20997;SDS011;10657;51.276;6.390;2022-07-04T06:53:37;7.25;;;1.90;;
20997;SDS011;10657;51.276;6.390;2022-07-04T06:56:04;10.80;;;1.50;;
20997;SDS011;10657;51.276;6.390;2022-07-04T06:58:31;5.50;;;1.58;;
20997;SDS011;10657;51.276;6.390;2022-07-04T07:00:58;8.00;;;1.58;;
20997;SDS011;10657;51.276;6.390;2022-07-04T07:03:26;4.53;;;1.58;;
20997;SDS011;10657;51.276;6.390;2022-07-04T07:05:55;7.22;;;1.30;;
20997;SDS011;10657;51.276;6.390;2022-07-04T07:08:26;4.93;;;1.27;;
20997;SDS011;10657;51.276;6.390;2022-07-04T07:10:54;4.78;;;1.20;;
20997;SDS011;10657;51.276;6.390;2022-07-04T07:13:21;5.85;;;1.33;;
20997;SDS011;10657;51.276;6.390;2022-07-04T07:15:48;4.88;;;1.00;;
20997;SDS011;10657;51.276;6.390;2022-07-04T07:18:15;6.63;;;1.52;;
20997;SDS011;10657;51.276;6.390;2022-07-04T07:20:42;7.05;;;1.40;;
20997;SDS011;10657;51.276;6.390;2022-07-04T07:23:09;6.70;;;1.60;;
20997;SDS011;10657;51.276;6.390;2022-07-04T07:25:37;5.28;;;1.30;;
20997;SDS011;10657;51.276;6.390;2022-07-04T07:28:04;5.95;;;1.40;;
20997;SDS011;10657;51.276;6.390;2022-07-04T07:30:31;5.43;;;1.10;;
20997;SDS011;10657;51.276;6.390;2022-07-04T07:32:58;5.70;;;1.40;;
20997;SDS011;10657;51.276;6.390;2022-07-04T07:35:25;5.70;;;1.25;;
20997;SDS011;10657;51.276;6.390;2022-07-04T07:37:53;4.45;;;1.20;;
20997;SDS011;10657;51.276;6.390;2022-07-04T07:40:20;7.63;;;1.58;;
20997;SDS011;10657;51.276;6.390;2022-07-04T07:42:47;5.70;;;1.80;;
20997;SDS011;10657;51.276;6.390;2022-07-04T07:45:14;6.03;;;1.92;;
20997;SDS011;10657;51.276;6.390;2022-07-04T07:47:41;6.55;;;1.55;;
20997;SDS011;10657;51.276;6.390;2022-07-04T07:50:08;5.25;;;1.50;;
20997;SDS011;10657;51.276;6.390;2022-07-04T07:52:36;3.97;;;1.40;;
20997;SDS011;10657;51.276;6.390;2022-07-04T07:55:03;6.43;;;1.50;;
20997;SDS011;10657;51.276;6.390;2022-07-04T07:57:31;5.43;;;1.40;;
20997;SDS011;10657;51.276;6.390;2022-07-04T07:59:58;5.65;;;1.80;;
20997;SDS011;10657;51.276;6.390;2022-07-04T08:02:25;6.53;;;1.50;;
20997;SDS011;10657;51.276;6.390;2022-07-04T08:05:11;9.50;;;2.03;;
20997;SDS011;10657;51.276;6.390;2022-07-04T08:07:38;6.78;;;1.60;;
20997;SDS011;10657;51.276;6.390;2022-07-04T08:10:06;7.20;;;1.50;;
20997;SDS011;10657;51.276;6.390;2022-07-04T08:12:33;7.90;;;1.40;;
20997;SDS011;10657;51.276;6.390;2022-07-04T08:15:01;4.55;;;1.52;;
20997;SDS011;10657;51.276;6.390;2022-07-04T08:17:32;9.00;;;2.00;;
20997;SDS011;10657;51.276;6.390;2022-07-04T08:20:00;6.00;;;1.88;;
20997;SDS011;10657;51.276;6.390;2022-07-04T08:22:27;6.60;;;1.92;;
20997;SDS011;10657;51.276;6.390;2022-07-04T08:24:54;5.60;;;1.67;;
20997;SDS011;10657;51.276;6.390;2022-07-04T08:27:21;9.63;;;1.58;;
20997;SDS011;10657;51.276;6.390;2022-07-04T08:29:57;5.40;;;1.42;;
20997;SDS011;10657;51.276;6.390;2022-07-04T08:32:24;9.88;;;1.70;;
20997;SDS011;10657;51.276;6.390;2022-07-04T08:34:52;4.20;;;1.35;;
20997;SDS011;10657;51.276;6.390;2022-07-04T08:37:21;5.75;;;1.50;;
20997;SDS011;10657;51.276;6.390;2022-07-04T08:39:49;4.00;;;1.38;;
20997;SDS011;10657;51.276;6.390;2022-07-04T08:42:17;10.45;;;1.58;;
20997;SDS011;10657;51.276;6.390;2022-07-04T08:44:48;8.20;;;1.50;;
20997;SDS011;10657;51.276;6.390;2022-07-04T08:47:18;6.00;;;1.30;;
20997;SDS011;10657;51.276;6.390;2022-07-04T08:49:49;4.82;;;1.67;;
20997;SDS011;10657;51.276;6.390;2022-07-04T08:52:23;8.52;;;1.83;;
20997;SDS011;10657;51.276;6.390;2022-07-04T08:54:55;5.10;;;1.30;;
20997;SDS011;10657;51.276;6.390;2022-07-04T08:57:44;8.18;;;1.52;;
20997;SDS011;10657;51.276;6.390;2022-07-04T09:00:30;6.38;;;1.98;;
20997;SDS011;10657;51.276;6.390;2022-07-04T09:02:58;7.32;;;2.10;;
20997;SDS011;10657;51.276;6.390;2022-07-04T09:05:26;8.13;;;1.88;;
20997;SDS011;10657;51.276;6.390;2022-07-04T09:07:53;8.70;;;1.58;;
20997;SDS011;10657;51.276;6.390;2022-07-04T09:10:21;6.15;;;1.85;;
20997;SDS011;10657;51.276;6.390;2022-07-04T09:12:48;6.13;;;1.77;;
20997;SDS011;10657;51.276;6.390;2022-07-04T09:15:36;8.20;;;1.73;;
20997;SDS011;10657;51.276;6.390;2022-07-04T09:18:03;5.47;;;1.80;;
20997;SDS011;10657;51.276;6.390;2022-07-04T09:20:31;4.88;;;1.52;;
20997;SDS011;10657;51.276;6.390;2022-07-04T09:22:59;4.97;;;1.40;;
20997;SDS011;10657;51.276;6.390;2022-07-04T09:25:26;9.00;;;1.70;;
20997;SDS011;10657;51.276;6.390;2022-07-04T09:27:54;3.67;;;1.20;;
20997;SDS011;10657;51.276;6.390;2022-07-04T09:30:23;10.07;;;1.77;;
20997;SDS011;10657;51.276;6.390;2022-07-04T09:32:51;9.00;;;1.92;;
20997;SDS011;10657;51.276;6.390;2022-07-04T09:35:21;5.35;;;1.50;;
20997;SDS011;10657;51.276;6.390;2022-07-04T09:37:49;4.10;;;1.17;;
20997;SDS011;10657;51.276;6.390;2022-07-04T09:40:27;6.50;;;1.77;;
20997;SDS011;10657;51.276;6.390;2022-07-04T09:42:56;4.03;;;1.10;;
20997;SDS011;10657;51.276;6.390;2022-07-04T09:45:24;8.27;;;1.67;;
20997;SDS011;10657;51.276;6.390;2022-07-04T09:47:55;8.43;;;1.48;;
20997;SDS011;10657;51.276;6.390;2022-07-04T09:50:23;7.85;;;1.88;;
20997;SDS011;10657;51.276;6.390;2022-07-04T09:55:21;6.22;;;1.55;;
20997;SDS011;10657;51.276;6.390;2022-07-04T09:57:48;4.35;;;1.50;;
20997;SDS011;10657;51.276;6.390;2022-07-04T10:00:26;5.28;;;1.30;;
20997;SDS011;10657;51.276;6.390;2022-07-04T10:02:54;3.75;;;1.35;;
20997;SDS011;10657;51.276;6.390;2022-07-04T10:05:22;9.00;;;1.83;;
20997;SDS011;10657;51.276;6.390;2022-07-04T10:07:50;5.07;;;1.50;;
20997;SDS011;10657;51.276;6.390;2022-07-04T10:10:31;7.57;;;1.65;;
20997;SDS011;10657;51.276;6.390;2022-07-04T10:13:03;8.57;;;1.30;;
20997;SDS011;10657;51.276;6.390;2022-07-04T10:15:31;8.60;;;1.55;;
20997;SDS011;10657;51.276;6.390;2022-07-04T10:17:58;3.72;;;1.08;;
20997;SDS011;10657;51.276;6.390;2022-07-04T10:20:26;4.25;;;1.17;;
20997;SDS011;10657;51.276;6.390;2022-07-04T10:22:53;3.88;;;1.10;;
20997;SDS011;10657;51.276;6.390;2022-07-04T10:25:20;6.43;;;1.30;;
20997;SDS011;10657;51.276;6.390;2022-07-04T10:27:47;3.88;;;1.15;;
20997;SDS011;10657;51.276;6.390;2022-07-04T10:30:21;6.65;;;1.50;;
20997;SDS011;10657;51.276;6.390;2022-07-04T10:32:48;5.30;;;1.40;;
20997;SDS011;10657;51.276;6.390;2022-07-04T10:35:16;5.35;;;1.20;;
20997;SDS011;10657;51.276;6.390;2022-07-04T10:38:03;3.85;;;1.05;;
20997;SDS011;10657;51.276;6.390;2022-07-04T10:40:44;4.32;;;1.00;;
20997;SDS011;10657;51.276;6.390;2022-07-04T10:54:06;5.40;;;1.17;;
20997;SDS011;10657;51.276;6.390;2022-07-04T10:56:35;3.47;;;1.23;;
20997;SDS011;10657;51.276;6.390;2022-07-04T10:59:06;3.80;;;0.88;;
20997;SDS011;10657;51.276;6.390;2022-07-04T11:01:34;5.05;;;1.10;;
20997;SDS011;10657;51.276;6.390;2022-07-04T11:04:01;3.17;;;0.95;;
20997;SDS011;10657;51.276;6.390;2022-07-04T11:09:18;7.28;;;1.10;;
20997;SDS011;10657;51.276;6.390;2022-07-04T11:12:02;2.80;;;0.90;;
20997;SDS011;10657;51.276;6.390;2022-07-04T11:14:50;4.72;;;0.90;;
20997;SDS011;10657;51.276;6.390;2022-07-04T11:17:20;2.97;;;1.00;;
20997;SDS011;10657;51.276;6.390;2022-07-04T11:19:47;7.25;;;1.25;;
20997;SDS011;10657;51.276;6.390;2022-07-04T11:22:23;4.35;;;1.00;;
20997;SDS011;10657;51.276;6.390;2022-07-04T11:24:50;7.13;;;1.27;;
20997;SDS011;10657;51.276;6.390;2022-07-04T11:27:17;5.60;;;1.10;;
20997;SDS011;10657;51.276;6.390;2022-07-04T11:29:51;1.98;;;0.80;;
20997;SDS011;10657;51.276;6.390;2022-07-04T11:32:18;4.13;;;0.93;;
20997;SDS011;10657;51.276;6.390;2022-07-04T11:34:46;4.57;;;0.90;;
20997;SDS011;10657;51.276;6.390;2022-07-04T11:37:13;5.00;;;1.10;;
20997;SDS011;10657;51.276;6.390;2022-07-04T11:39:41;5.63;;;1.23;;
20997;SDS011;10657;51.276;6.390;2022-07-04T11:42:08;4.40;;;1.20;;
20997;SDS011;10657;51.276;6.390;2022-07-04T11:44:53;3.63;;;1.10;;
20997;SDS011;10657;51.276;6.390;2022-07-04T11:47:32;3.85;;;1.00;;
20997;SDS011;10657;51.276;6.390;2022-07-04T11:50:04;4.28;;;0.95;;
20997;SDS011;10657;51.276;6.390;2022-07-04T11:55:24;4.63;;;1.13;;
20997;SDS011;10657;51.276;6.390;2022-07-04T11:57:51;5.25;;;1.02;;
20997;SDS011;10657;51.276;6.390;2022-07-04T12:00:24;8.02;;;1.10;;
20997;SDS011;10657;51.276;6.390;2022-07-04T12:02:51;4.55;;;1.10;;
20997;SDS011;10657;51.276;6.390;2022-07-04T12:05:19;6.20;;;1.30;;
20997;SDS011;10657;51.276;6.390;2022-07-04T12:07:46;2.97;;;1.13;;
20997;SDS011;10657;51.276;6.390;2022-07-04T12:10:34;5.93;;;1.20;;
20997;SDS011;10657;51.276;6.390;2022-07-04T12:13:02;4.35;;;1.30;;
20997;SDS011;10657;51.276;6.390;2022-07-04T12:18:04;4.55;;;1.30;;
20997;SDS011;10657;51.276;6.390;2022-07-04T12:20:32;7.30;;;1.50;;
20997;SDS011;10657;51.276;6.390;2022-07-04T12:23:00;5.70;;;1.67;;
20997;SDS011;10657;51.276;6.390;2022-07-04T12:25:34;5.60;;;1.45;;
20997;SDS011;10657;51.276;6.390;2022-07-04T12:28:05;4.32;;;1.35;;
20997;SDS011;10657;51.276;6.390;2022-07-04T12:30:33;4.60;;;1.30;;
20997;SDS011;10657;51.276;6.390;2022-07-04T12:33:04;5.30;;;1.10;;
20997;SDS011;10657;51.276;6.390;2022-07-04T12:35:32;5.22;;;1.20;;
20997;SDS011;10657;51.276;6.390;2022-07-04T12:38:21;4.57;;;1.38;;
20997;SDS011;10657;51.276;6.390;2022-07-04T12:46:09;5.55;;;1.85;;
20997;SDS011;10657;51.276;6.390;2022-07-04T12:48:37;3.33;;;1.33;;
20997;SDS011;10657;51.276;6.390;2022-07-04T12:51:14;6.00;;;1.75;;
20997;SDS011;10657;51.276;6.390;2022-07-04T12:53:42;4.95;;;1.42;;
20997;SDS011;10657;51.276;6.390;2022-07-04T12:56:10;8.15;;;1.70;;
20997;SDS011;10657;51.276;6.390;2022-07-04T12:58:54;3.88;;;1.25;;
20997;SDS011;10657;51.276;6.390;2022-07-04T13:01:21;5.13;;;1.40;;
20997;SDS011;10657;51.276;6.390;2022-07-04T13:03:48;6.43;;;1.33;;
20997;SDS011;10657;51.276;6.390;2022-07-04T13:06:15;7.32;;;1.73;;
20997;SDS011;10657;51.276;6.390;2022-07-04T13:08:42;7.45;;;1.75;;
20997;SDS011;10657;51.276;6.390;2022-07-04T13:11:09;4.85;;;1.45;;
20997;SDS011;10657;51.276;6.390;2022-07-04T13:13:55;5.43;;;1.33;;
20997;SDS011;10657;51.276;6.390;2022-07-04T13:16:22;6.05;;;1.10;;
20997;SDS011;10657;51.276;6.390;2022-07-04T13:18:50;3.78;;;1.10;;
20997;SDS011;10657;51.276;6.390;2022-07-04T13:21:17;4.50;;;1.23;;
20997;SDS011;10657;51.276;6.390;2022-07-04T13:23:45;3.17;;;1.13;;
20997;SDS011;10657;51.276;6.390;2022-07-04T13:26:12;5.95;;;1.20;;
20997;SDS011;10657;51.276;6.390;2022-07-04T13:28:39;3.95;;;1.00;;
20997;SDS011;10657;51.276;6.390;2022-07-04T13:31:07;3.15;;;1.10;;
20997;SDS011;10657;51.276;6.390;2022-07-04T13:33:34;4.40;;;0.90;;
20997;SDS011;10657;51.276;6.390;2022-07-04T13:36:01;5.68;;;1.30;;
20997;SDS011;10657;51.276;6.390;2022-07-04T13:38:28;4.78;;;1.00;;
20997;SDS011;10657;51.276;6.390;2022-07-04T13:40:55;4.40;;;1.13;;
20997;SDS011;10657;51.276;6.390;2022-07-04T13:43:26;5.25;;;1.15;;
20997;SDS011;10657;51.276;6.390;2022-07-04T13:45:55;6.05;;;1.30;;
20997;SDS011;10657;51.276;6.390;2022-07-04T13:48:23;6.90;;;1.50;;
20997;SDS011;10657;51.276;6.390;2022-07-04T13:50:50;6.60;;;1.80;;
20997;SDS011;10657;51.276;6.390;2022-07-04T13:53:18;5.90;;;1.20;;
20997;SDS011;10657;51.276;6.390;2022-07-04T13:55:46;4.53;;;1.20;;
20997;SDS011;10657;51.276;6.390;2022-07-04T13:58:14;5.75;;;1.30;;
20997;SDS011;10657;51.276;6.390;2022-07-04T14:00:41;6.65;;;1.40;;
20997;SDS011;10657;51.276;6.390;2022-07-04T14:03:11;5.53;;;1.17;;
20997;SDS011;10657;51.276;6.390;2022-07-04T14:05:41;6.07;;;1.50;;
20997;SDS011;10657;51.276;6.390;2022-07-04T14:08:09;3.55;;;1.40;;
20997;SDS011;10657;51.276;6.390;2022-07-04T14:10:36;5.13;;;1.10;;
20997;SDS011;10657;51.276;6.390;2022-07-04T14:13:03;5.35;;;1.42;;
20997;SDS011;10657;51.276;6.390;2022-07-04T14:15:35;3.28;;;1.30;;
20997;SDS011;10657;51.276;6.390;2022-07-04T14:18:03;7.85;;;1.40;;
20997;SDS011;10657;51.276;6.390;2022-07-04T14:20:33;4.40;;;1.20;;
20997;SDS011;10657;51.276;6.390;2022-07-04T14:23:02;6.05;;;1.00;;
20997;SDS011;10657;51.276;6.390;2022-07-04T14:25:29;6.53;;;1.30;;
20997;SDS011;10657;51.276;6.390;2022-07-04T14:27:57;3.33;;;1.05;;
20997;SDS011;10657;51.276;6.390;2022-07-04T14:30:24;8.07;;;1.30;;
20997;SDS011;10657;51.276;6.390;2022-07-04T14:32:51;5.15;;;1.50;;
20997;SDS011;10657;51.276;6.390;2022-07-04T14:35:18;3.35;;;1.10;;
20997;SDS011;10657;51.276;6.390;2022-07-04T14:37:45;4.57;;;1.40;;
20997;SDS011;10657;51.276;6.390;2022-07-04T14:40:12;3.05;;;1.20;;
20997;SDS011;10657;51.276;6.390;2022-07-04T14:42:41;4.38;;;1.30;;
20997;SDS011;10657;51.276;6.390;2022-07-04T14:45:08;6.13;;;1.40;;
20997;SDS011;10657;51.276;6.390;2022-07-04T14:47:35;4.78;;;1.23;;
20997;SDS011;10657;51.276;6.390;2022-07-04T14:50:02;6.18;;;1.40;;
20997;SDS011;10657;51.276;6.390;2022-07-04T14:52:29;4.70;;;1.17;;
20997;SDS011;10657;51.276;6.390;2022-07-04T14:54:57;4.63;;;1.17;;
20997;SDS011;10657;51.276;6.390;2022-07-04T14:57:24;6.60;;;1.25;;
20997;SDS011;10657;51.276;6.390;2022-07-04T14:59:51;6.70;;;1.38;;
20997;SDS011;10657;51.276;6.390;2022-07-04T15:02:19;5.45;;;1.45;;
20997;SDS011;10657;51.276;6.390;2022-07-04T15:04:46;5.88;;;1.20;;
20997;SDS011;10657;51.276;6.390;2022-07-04T15:07:13;4.55;;;1.30;;
20997;SDS011;10657;51.276;6.390;2022-07-04T15:09:40;6.18;;;1.20;;
20997;SDS011;10657;51.276;6.390;2022-07-04T15:12:07;3.55;;;1.25;;
20997;SDS011;10657;51.276;6.390;2022-07-04T15:14:35;5.53;;;1.48;;
20997;SDS011;10657;51.276;6.390;2022-07-04T15:17:02;6.75;;;1.45;;
20997;SDS011;10657;51.276;6.390;2022-07-04T15:19:35;4.45;;;1.33;;
20997;SDS011;10657;51.276;6.390;2022-07-04T15:22:22;6.25;;;1.30;;